createdAt,value
2022-11-08T00:00:47.255Z,13.70
2022-11-08T00:03:13.843Z,13.75
2022-11-08T00:05:40.304Z,13.75
2022-11-08T00:08:06.810Z,13.73
2022-11-08T00:10:33.323Z,13.74
2022-11-08T00:12:59.774Z,13.73
2022-11-08T00:15:26.260Z,13.79
2022-11-08T00:17:52.759Z,13.77
2022-11-08T00:20:19.326Z,13.76
2022-11-08T00:22:45.777Z,13.77
2022-11-08T00:25:12.313Z,13.79
2022-11-08T00:27:38.809Z,13.79
2022-11-08T00:30:05.920Z,13.85
2022-11-08T00:32:32.347Z,13.81
2022-11-08T00:34:58.821Z,13.83
2022-11-08T00:37:25.356Z,13.83
2022-11-08T00:39:51.817Z,13.83
2022-11-08T00:42:18.268Z,13.83
2022-11-08T00:44:44.918Z,13.83
2022-11-08T00:47:11.375Z,13.78
2022-11-08T00:49:37.896Z,13.79
2022-11-08T00:52:04.939Z,13.81
2022-11-08T00:54:31.435Z,13.74
2022-11-08T00:56:58.033Z,13.73
2022-11-08T00:59:24.561Z,13.74
2022-11-08T01:01:51.089Z,13.71
2022-11-08T01:04:19.423Z,13.70
2022-11-08T01:06:46.401Z,13.72
2022-11-08T01:09:13.687Z,13.70
2022-11-08T01:11:40.717Z,13.69
2022-11-08T01:14:07.201Z,13.62
2022-11-08T01:16:34.752Z,13.63
2022-11-08T01:19:02.573Z,13.57
2022-11-08T01:21:29.820Z,13.52
2022-11-08T01:23:56.306Z,13.54
2022-11-08T01:26:25.719Z,13.46
2022-11-08T01:28:53.006Z,13.52
2022-11-08T01:31:25.469Z,13.47
2022-11-08T01:33:52.438Z,13.42
2022-11-08T01:36:22.287Z,13.47
2022-11-08T01:38:49.472Z,13.50
2022-11-08T01:41:18.079Z,13.47
2022-11-08T01:43:55.775Z,13.53
2022-11-08T01:46:44.339Z,13.52
2022-11-08T01:49:37.057Z,13.53
2022-11-08T01:52:19.139Z,13.55
2022-11-08T01:54:56.648Z,13.58
2022-11-08T01:57:28.102Z,13.50
2022-11-08T01:59:56.415Z,13.57
2022-11-08T02:02:23.483Z,13.45
2022-11-08T02:04:50.164Z,13.50
2022-11-08T02:07:17.699Z,13.52
2022-11-08T02:09:47.205Z,13.47
2022-11-08T02:12:15.258Z,13.46
2022-11-08T02:14:41.808Z,13.43
2022-11-08T02:17:08.552Z,13.42
2022-11-08T02:19:53.319Z,13.36
2022-11-08T02:22:30.733Z,13.40
2022-11-08T02:24:57.587Z,13.36
2022-11-08T02:27:24.616Z,13.40
2022-11-08T02:29:54.928Z,13.40
2022-11-08T02:32:23.377Z,13.36
2022-11-08T02:34:54.740Z,13.43
2022-11-08T02:37:22.317Z,13.39
2022-11-08T02:39:49.250Z,13.45
2022-11-08T02:42:18.017Z,13.44
2022-11-08T02:44:45.502Z,13.42
2022-11-08T02:47:11.991Z,13.48
2022-11-08T02:49:38.421Z,13.51
2022-11-08T02:52:05.448Z,13.58
2022-11-08T02:54:31.888Z,13.55
2022-11-08T02:56:58.426Z,13.58
2022-11-08T02:59:24.855Z,13.67
2022-11-08T03:01:51.387Z,13.70
2022-11-08T03:04:17.965Z,13.71
2022-11-08T03:06:44.435Z,13.74
2022-11-08T03:09:10.981Z,13.75
2022-11-08T03:11:37.478Z,13.81
2022-11-08T03:14:03.913Z,13.78
2022-11-08T03:16:30.398Z,13.80
2022-11-08T03:18:56.817Z,13.86
2022-11-08T03:21:23.312Z,13.87
2022-11-08T03:23:49.836Z,13.92
2022-11-08T03:26:16.408Z,13.98
2022-11-08T03:28:42.851Z,13.94
2022-11-08T03:31:09.435Z,14.03
2022-11-08T03:33:35.866Z,13.97
2022-11-08T03:36:02.330Z,14.02
2022-11-08T03:38:28.774Z,14.03
2022-11-08T03:40:55.283Z,14.03
2022-11-08T03:43:21.727Z,13.97
2022-11-08T03:45:48.234Z,14.02
2022-11-08T03:48:14.900Z,14.03
2022-11-08T03:50:41.481Z,14.08
2022-11-08T03:53:07.954Z,14.03
2022-11-08T03:55:34.402Z,14.02
2022-11-08T03:58:00.825Z,13.99
2022-11-08T04:00:29.209Z,14.09
2022-11-08T04:03:01.991Z,13.98
2022-11-08T04:05:29.172Z,14.12
2022-11-08T04:07:55.602Z,14.06
2022-11-08T04:10:22.205Z,14.07
2022-11-08T04:12:48.771Z,14.07
2022-11-08T04:15:19.801Z,14.12
2022-11-08T04:17:51.270Z,14.05
2022-11-08T04:20:17.639Z,14.13
2022-11-08T04:22:44.080Z,14.08
2022-11-08T04:25:10.547Z,14.09
2022-11-08T04:27:36.973Z,14.05
2022-11-08T04:30:03.756Z,14.05
2022-11-08T04:32:30.249Z,14.02
2022-11-08T04:34:56.682Z,13.97
2022-11-08T04:37:23.094Z,13.93
2022-11-08T04:39:49.550Z,13.88
2022-11-08T04:42:16.041Z,13.85
2022-11-08T04:44:42.598Z,13.81
2022-11-08T04:47:09.079Z,13.77
2022-11-08T04:49:35.531Z,13.70
2022-11-08T04:52:01.983Z,13.73
2022-11-08T04:54:28.475Z,13.62
2022-11-08T04:56:54.926Z,13.58
2022-11-08T04:59:21.413Z,13.51
2022-11-08T05:01:47.993Z,13.50
2022-11-08T05:04:14.498Z,13.45
2022-11-08T05:06:40.914Z,13.39
2022-11-08T05:09:07.381Z,13.36
2022-11-08T05:11:33.804Z,13.29
2022-11-08T05:14:00.292Z,13.23
2022-11-08T05:16:30.230Z,13.28
2022-11-08T05:18:57.012Z,13.25
2022-11-08T05:21:24.017Z,13.18
2022-11-08T05:23:51.023Z,13.18
2022-11-08T05:26:19.165Z,13.13
2022-11-08T05:28:45.881Z,13.10
2022-11-08T05:31:12.794Z,13.12
2022-11-08T05:33:39.267Z,13.02
2022-11-08T05:36:10.685Z,13.08
2022-11-08T05:38:37.717Z,13.05
2022-11-08T05:41:06.060Z,13.02
2022-11-08T05:43:32.598Z,13.02
2022-11-08T05:45:59.134Z,13.00
2022-11-08T05:48:26.248Z,13.00
2022-11-08T05:50:52.862Z,12.96
2022-11-08T05:53:19.790Z,12.99
2022-11-08T05:55:47.425Z,12.98
2022-11-08T05:58:14.011Z,12.95
2022-11-08T06:00:40.474Z,12.95
2022-11-08T06:03:07.467Z,12.96
2022-11-08T06:05:35.110Z,13.02
2022-11-08T06:08:01.611Z,12.99
2022-11-08T06:10:28.088Z,13.06
2022-11-08T06:12:58.923Z,13.09
2022-11-08T06:15:25.478Z,13.06
2022-11-08T06:17:51.945Z,13.07
2022-11-08T06:20:18.553Z,13.11
2022-11-08T06:22:45.640Z,13.12
2022-11-08T06:25:12.179Z,13.16
2022-11-08T06:27:38.676Z,13.19
2022-11-08T06:30:06.855Z,13.23
2022-11-08T06:32:33.915Z,13.23
2022-11-08T06:35:00.397Z,13.21
2022-11-08T06:37:26.875Z,13.21
2022-11-08T06:39:53.356Z,13.24
2022-11-08T06:42:19.789Z,13.28
2022-11-08T06:44:46.295Z,13.18
2022-11-08T06:47:12.865Z,13.30
2022-11-08T06:49:39.431Z,13.16
2022-11-08T06:52:05.921Z,13.19
2022-11-08T06:54:32.394Z,13.21
2022-11-08T06:56:58.938Z,13.16
2022-11-08T06:59:25.492Z,13.16
2022-11-08T07:01:52.120Z,13.16
2022-11-08T07:04:18.904Z,13.04
2022-11-08T07:06:45.440Z,13.13
2022-11-08T07:09:12.079Z,13.07
2022-11-08T07:11:38.777Z,13.05
2022-11-08T07:14:05.576Z,13.06
2022-11-08T07:16:32.124Z,13.06
2022-11-08T07:18:58.599Z,13.08
2022-11-08T07:21:25.168Z,13.08
2022-11-08T07:23:52.083Z,13.09
2022-11-08T07:26:18.637Z,13.14
2022-11-08T07:28:45.099Z,13.13
2022-11-08T07:31:11.720Z,13.13
2022-11-08T07:33:38.204Z,13.09
2022-11-08T07:36:05.037Z,13.13
2022-11-08T07:38:31.543Z,13.08
2022-11-08T07:40:59.847Z,13.10
2022-11-08T07:43:28.268Z,13.05
2022-11-08T07:46:01.088Z,13.07
2022-11-08T07:48:29.175Z,13.00
2022-11-08T07:50:55.691Z,12.98
2022-11-08T07:53:22.681Z,13.01
2022-11-08T07:55:49.440Z,12.98
2022-11-08T07:58:16.114Z,12.88
2022-11-08T08:00:44.475Z,12.94
2022-11-08T08:03:13.935Z,12.96
2022-11-08T08:05:44.897Z,12.98
2022-11-08T08:08:13.167Z,12.98
2022-11-08T08:10:40.455Z,12.97
2022-11-08T08:13:07.292Z,12.98
2022-11-08T08:15:34.352Z,12.97
2022-11-08T08:18:02.742Z,13.05
2022-11-08T08:20:30.517Z,13.13
2022-11-08T08:22:57.414Z,13.16
2022-11-08T08:25:24.051Z,13.23
2022-11-08T08:27:55.314Z,13.34
2022-11-08T08:30:23.372Z,13.36
2022-11-08T08:33:08.314Z,13.39
2022-11-08T08:35:37.875Z,13.51
2022-11-08T08:38:05.854Z,13.58
2022-11-08T08:40:33.628Z,13.62
2022-11-08T08:43:01.203Z,13.69
2022-11-08T08:45:28.002Z,13.71
2022-11-08T08:47:55.992Z,13.71
2022-11-08T08:50:23.009Z,13.73
2022-11-08T08:52:49.567Z,13.75
2022-11-08T08:55:16.309Z,13.73
2022-11-08T08:57:46.928Z,13.75
2022-11-08T09:03:07.458Z,13.75
2022-11-08T09:05:34.899Z,13.80
2022-11-08T09:08:01.497Z,13.74
2022-11-08T09:10:28.751Z,13.68
2022-11-08T09:12:55.476Z,13.73
2022-11-08T09:15:22.253Z,13.78
2022-11-08T09:17:48.919Z,13.77
2022-11-08T09:20:15.630Z,13.85
2022-11-08T09:22:42.167Z,14.02
2022-11-08T09:25:08.953Z,14.28
2022-11-08T09:27:35.494Z,14.51
2022-11-08T09:30:02.012Z,14.87
2022-11-08T09:32:39.598Z,15.08
2022-11-08T09:35:15.352Z,15.51
2022-11-08T09:37:45.557Z,15.82
2022-11-08T09:40:18.262Z,16.10
2022-11-08T09:42:58.413Z,16.35
2022-11-08T09:45:32.707Z,16.67
2022-11-08T09:48:05.225Z,16.90
2022-11-08T09:50:43.392Z,17.02
2022-11-08T09:53:18.755Z,16.97
2022-11-08T09:55:49.385Z,17.07
2022-11-08T09:58:26.194Z,17.10
2022-11-08T10:00:52.724Z,17.13
2022-11-08T10:03:22.560Z,17.12
2022-11-08T10:06:10.747Z,17.02
2022-11-08T10:08:47.150Z,16.88
2022-11-08T10:12:05.292Z,16.69
2022-11-08T10:15:02.773Z,16.47
2022-11-08T10:17:50.798Z,16.31
2022-11-08T10:20:43.038Z,16.16
2022-11-08T10:23:28.609Z,15.91
2022-11-08T10:26:00.272Z,15.82
2022-11-08T10:28:34.775Z,15.71
2022-11-08T10:31:02.335Z,15.60
2022-11-08T10:33:32.014Z,15.50
2022-11-08T10:36:06.814Z,15.35
2022-11-08T10:38:49.931Z,15.24
2022-11-08T10:41:25.897Z,15.30
2022-11-08T10:44:02.121Z,15.30
2022-11-08T10:46:43.833Z,15.32
2022-11-08T10:49:25.322Z,15.34
2022-11-08T10:51:56.163Z,15.38
2022-11-08T10:54:43.703Z,15.39
2022-11-08T10:57:13.075Z,15.36
2022-11-08T10:59:40.435Z,15.38
2022-11-08T11:02:34.873Z,15.38
2022-11-08T11:05:16.806Z,15.40
2022-11-08T11:08:17.626Z,15.36
2022-11-08T11:10:46.295Z,15.36
2022-11-08T11:15:57.396Z,15.28
2022-11-08T11:18:28.800Z,15.24
2022-11-08T11:20:58.167Z,15.21
2022-11-08T11:23:33.111Z,15.14
2022-11-08T11:25:59.716Z,15.12
2022-11-08T11:28:26.392Z,15.12
2022-11-08T11:31:01.622Z,15.10
2022-11-08T11:33:30.375Z,15.08
2022-11-08T11:36:13.314Z,15.09
2022-11-08T11:38:52.672Z,15.20
2022-11-08T11:41:26.408Z,15.27
2022-11-08T11:44:26.809Z,15.38
2022-11-08T11:47:17.493Z,15.47
2022-11-08T11:49:45.250Z,15.53
2022-11-08T11:52:19.055Z,15.53
2022-11-08T11:54:49.195Z,15.60
2022-11-08T11:57:28.746Z,15.60
2022-11-08T12:00:10.688Z,15.59
2022-11-08T12:02:56.911Z,15.61
2022-11-08T12:05:34.008Z,15.61
2022-11-08T12:08:09.683Z,15.64
2022-11-08T12:11:04.408Z,15.68
2022-11-08T12:13:51.510Z,15.73
2022-11-08T12:16:36.131Z,15.70
2022-11-08T12:19:21.322Z,15.66
2022-11-08T12:21:58.599Z,15.61
2022-11-08T12:24:31.800Z,15.60
2022-11-08T12:27:01.855Z,15.55
2022-11-08T12:30:02.553Z,15.53
2022-11-08T12:33:05.959Z,15.53
2022-11-08T12:36:03.241Z,15.47
2022-11-08T12:38:39.373Z,15.52
2022-11-08T12:41:26.131Z,15.54
2022-11-08T12:44:07.807Z,15.60
2022-11-08T12:47:02.381Z,15.59
2022-11-08T12:50:16.759Z,15.60
2022-11-08T12:52:43.246Z,15.64
2022-11-08T12:55:21.787Z,15.64
2022-11-08T12:57:48.511Z,15.66
2022-11-08T13:00:18.065Z,15.76
2022-11-08T13:03:17.418Z,15.79
2022-11-08T13:06:12.647Z,15.87
2022-11-08T13:09:05.646Z,15.92
2022-11-08T13:11:53.406Z,15.93
2022-11-08T13:14:21.682Z,15.97
2022-11-08T13:17:23.493Z,16.03
2022-11-08T13:19:54.597Z,16.08
2022-11-08T13:22:30.258Z,16.11
2022-11-08T13:25:07.607Z,16.11
2022-11-08T13:27:36.628Z,16.09
2022-11-08T13:30:23.020Z,16.03
2022-11-08T13:33:04.240Z,15.95
2022-11-08T13:35:49.161Z,16.02
2022-11-08T13:38:26.727Z,16.08
2022-11-08T13:41:13.320Z,16.17
2022-11-08T13:43:39.994Z,16.18
2022-11-08T13:46:21.554Z,16.19
2022-11-08T13:49:03.267Z,16.17
2022-11-08T13:51:34.266Z,16.08
2022-11-08T13:54:25.440Z,16.09
2022-11-08T13:56:59.640Z,16.06
2022-11-08T13:59:32.550Z,16.03
2022-11-08T14:02:19.110Z,16.03
2022-11-08T14:04:45.611Z,16.02
2022-11-08T14:07:12.075Z,16.05
2022-11-08T14:10:07.946Z,16.02
2022-11-08T14:12:42.955Z,16.03
2022-11-08T14:15:30.658Z,16.07
2022-11-08T14:18:04.560Z,16.13
2022-11-08T14:20:38.813Z,16.21
2022-11-08T14:23:27.597Z,16.32
2022-11-08T14:26:15.518Z,16.41
2022-11-08T14:28:46.817Z,16.36
2022-11-08T14:31:33.595Z,16.23
2022-11-08T14:34:01.444Z,16.10
2022-11-08T14:36:29.880Z,16.03
2022-11-08T14:39:15.722Z,15.90
2022-11-08T14:41:48.096Z,15.80
2022-11-08T14:44:16.826Z,15.74
2022-11-08T14:46:43.756Z,15.65
2022-11-08T14:49:23.281Z,15.55
2022-11-08T14:52:29.656Z,15.13
2022-11-08T14:55:04.569Z,14.51
2022-11-08T14:57:34.180Z,13.73
2022-11-08T15:00:04.605Z,13.25
2022-11-08T15:02:32.059Z,12.81
2022-11-08T15:04:58.648Z,12.58
2022-11-08T15:07:26.008Z,12.37
2022-11-08T15:09:53.305Z,12.28
2022-11-08T15:12:24.893Z,12.20
2022-11-08T15:14:59.391Z,12.13
2022-11-08T15:17:44.901Z,11.98
2022-11-08T15:20:11.425Z,11.93
2022-11-08T15:22:37.860Z,11.85
2022-11-08T15:25:32.859Z,11.85
2022-11-08T15:28:15.744Z,11.80
2022-11-08T15:30:43.838Z,11.74
2022-11-08T15:33:29.543Z,11.71
2022-11-08T15:35:56.027Z,11.61
2022-11-08T15:38:35.417Z,11.56
2022-11-08T15:41:04.650Z,11.56
2022-11-08T15:43:31.047Z,11.58
2022-11-08T15:46:02.343Z,11.57
2022-11-08T15:48:29.472Z,11.48
2022-11-08T15:50:56.854Z,11.50
2022-11-08T15:53:25.146Z,11.42
2022-11-08T15:56:01.490Z,11.40
2022-11-08T15:58:36.704Z,11.28
2022-11-08T16:01:05.331Z,11.23
2022-11-08T16:03:32.724Z,11.20
2022-11-08T16:06:00.050Z,11.17
2022-11-08T16:08:26.920Z,11.06
2022-11-08T16:11:00.312Z,11.05
2022-11-08T16:13:28.901Z,10.95
2022-11-08T16:15:57.345Z,10.96
2022-11-08T16:18:23.854Z,10.86
2022-11-08T16:20:50.828Z,10.86
2022-11-08T16:23:17.362Z,10.84
2022-11-08T16:25:46.504Z,10.75
2022-11-08T16:28:33.945Z,10.76
2022-11-08T16:31:10.320Z,10.71
2022-11-08T16:33:37.251Z,10.73
2022-11-08T16:36:35.643Z,10.68
2022-11-08T16:39:31.594Z,10.65
2022-11-08T16:41:59.508Z,10.64
2022-11-08T16:44:34.757Z,10.50
2022-11-08T16:47:01.545Z,10.61
2022-11-08T16:49:28.844Z,10.52
2022-11-08T16:51:58.265Z,10.42
2022-11-08T16:54:25.103Z,10.50
2022-11-08T16:56:53.652Z,10.56
2022-11-08T16:59:26.012Z,10.60
2022-11-08T17:01:52.693Z,10.56
2022-11-08T17:04:19.351Z,10.55
2022-11-08T17:06:45.941Z,10.55
2022-11-08T17:09:12.444Z,10.62
2022-11-08T17:11:38.917Z,10.53
2022-11-08T17:14:05.683Z,10.60
2022-11-08T17:16:32.313Z,10.57
2022-11-08T17:18:59.031Z,10.61
2022-11-08T17:24:15.853Z,10.60
2022-11-08T17:26:47.803Z,10.59
2022-11-08T17:29:14.260Z,10.59
2022-11-08T17:31:40.787Z,10.48
2022-11-08T17:34:07.260Z,10.56
2022-11-08T17:36:33.859Z,10.56
2022-11-08T17:39:00.354Z,10.56
2022-11-08T17:41:26.934Z,10.52
2022-11-08T17:43:53.454Z,10.59
2022-11-08T17:46:20.006Z,10.55
2022-11-08T17:48:46.502Z,10.53
2022-11-08T17:51:13.022Z,10.55
2022-11-08T17:53:39.508Z,10.53
2022-11-08T17:56:06.346Z,10.56
2022-11-08T17:58:33.697Z,10.45
2022-11-08T18:01:02.655Z,10.55
2022-11-08T18:03:29.252Z,10.51
2022-11-08T18:05:57.999Z,10.55
2022-11-08T18:08:27.084Z,10.53
2022-11-08T18:10:54.984Z,10.54
2022-11-08T18:13:22.303Z,10.49
2022-11-08T18:15:48.847Z,10.52
2022-11-08T18:18:16.823Z,10.53
2022-11-08T18:20:43.496Z,10.53
2022-11-08T18:23:10.364Z,10.44
2022-11-08T18:25:36.863Z,10.51
2022-11-08T18:28:03.370Z,10.50
2022-11-08T18:30:30.575Z,10.51
2022-11-08T18:32:57.038Z,10.51
2022-11-08T18:35:23.494Z,10.48
2022-11-08T18:37:50.050Z,10.51
2022-11-08T18:40:16.706Z,10.56
2022-11-08T18:42:43.117Z,10.54
2022-11-08T18:45:09.962Z,10.58
2022-11-08T18:47:36.498Z,10.57
2022-11-08T18:50:03.260Z,10.51
2022-11-08T18:52:29.828Z,10.59
2022-11-08T18:54:56.344Z,10.52
2022-11-08T18:57:23.050Z,10.64
2022-11-08T18:59:49.491Z,10.63
2022-11-08T19:02:16.078Z,10.63
2022-11-08T19:04:42.546Z,10.62
2022-11-08T19:07:09.148Z,10.67
2022-11-08T19:09:35.705Z,10.67
2022-11-08T19:12:05.929Z,10.68
2022-11-08T19:14:33.000Z,10.72
2022-11-08T19:16:59.544Z,10.70
2022-11-08T19:19:26.269Z,10.65
2022-11-08T19:21:52.752Z,10.63
2022-11-08T19:24:19.255Z,10.64
2022-11-08T19:26:45.748Z,10.68
2022-11-08T19:29:12.238Z,10.68
2022-11-08T19:31:38.907Z,10.69
2022-11-08T19:34:05.515Z,10.70
2022-11-08T19:36:32.097Z,10.69
2022-11-08T19:38:58.607Z,10.73
2022-11-08T19:41:27.569Z,10.70
2022-11-08T19:43:54.563Z,10.77
2022-11-08T19:46:23.667Z,10.74
2022-11-08T19:48:52.009Z,10.76
2022-11-08T19:51:21.537Z,10.70
2022-11-08T19:53:48.983Z,10.76
2022-11-08T19:56:18.818Z,10.77
2022-11-08T19:58:45.981Z,10.81
2022-11-08T20:01:21.981Z,10.74
2022-11-08T20:03:49.300Z,10.84
2022-11-08T20:06:18.473Z,10.79
2022-11-08T20:08:52.489Z,10.85
2022-11-08T20:11:24.956Z,10.84
2022-11-08T20:13:51.639Z,10.81
2022-11-08T20:16:19.390Z,10.84
2022-11-08T20:18:46.373Z,10.82
2022-11-08T20:21:14.857Z,10.85
2022-11-08T20:23:42.139Z,10.89
2022-11-08T20:26:13.543Z,10.90
2022-11-08T20:28:41.904Z,10.90
2022-11-08T20:31:11.738Z,10.88
2022-11-08T20:33:38.800Z,10.86
2022-11-08T20:36:13.235Z,10.91
2022-11-08T20:38:40.401Z,10.88
2022-11-08T20:41:10.180Z,10.91
2022-11-08T20:43:41.141Z,10.92
2022-11-08T20:46:13.703Z,10.93
2022-11-08T20:48:42.817Z,10.88
2022-11-08T20:51:12.613Z,10.94
2022-11-08T20:53:39.873Z,10.97
2022-11-08T20:56:10.563Z,10.93
2022-11-08T20:58:37.476Z,10.96
2022-11-08T21:01:06.182Z,10.89
2022-11-08T21:03:33.194Z,10.93
2022-11-08T21:06:02.140Z,10.93
2022-11-08T21:08:58.564Z,10.95
2022-11-08T21:11:16.710Z,10.91
2022-11-08T21:13:44.612Z,10.93
2022-11-08T21:16:29.366Z,10.93
2022-11-08T21:18:56.981Z,10.92
2022-11-08T21:21:23.447Z,10.88
2022-11-08T21:23:50.628Z,10.85
2022-11-08T21:26:18.934Z,10.92
2022-11-08T21:28:46.029Z,10.93
2022-11-08T21:31:13.214Z,10.92
2022-11-08T21:33:40.227Z,10.91
2022-11-08T21:36:07.242Z,10.91
2022-11-08T21:38:38.402Z,10.92
2022-11-08T21:41:07.854Z,10.91
2022-11-08T21:43:36.058Z,10.93
2022-11-08T21:46:15.247Z,10.90
2022-11-08T21:48:42.000Z,10.88
2022-11-08T21:51:08.462Z,10.87
2022-11-08T21:53:36.105Z,10.86
2022-11-08T21:56:05.940Z,10.82
2022-11-08T21:58:32.432Z,10.83
2022-11-08T22:00:58.921Z,10.83
2022-11-08T22:03:25.355Z,10.87
2022-11-08T22:05:51.887Z,10.82
2022-11-08T22:08:18.584Z,10.75
2022-11-08T22:10:45.750Z,10.90
2022-11-08T22:13:12.170Z,10.82
2022-11-08T22:15:38.698Z,10.89
2022-11-08T22:18:15.206Z,10.84
2022-11-08T22:20:46.486Z,10.86
2022-11-08T22:23:13.081Z,10.85
2022-11-08T22:25:42.469Z,10.87
2022-11-08T22:28:08.985Z,10.87
2022-11-08T22:30:35.465Z,10.82
2022-11-08T22:33:02.001Z,10.88
2022-11-08T22:35:28.525Z,10.91
2022-11-08T22:37:55.065Z,10.91
2022-11-08T22:40:21.524Z,10.98
2022-11-08T22:42:48.079Z,10.98
2022-11-08T22:45:14.567Z,11.05
2022-11-08T22:47:41.092Z,11.05
2022-11-08T22:50:07.875Z,11.12
2022-11-08T22:52:34.385Z,11.14
2022-11-08T22:55:00.868Z,11.17
2022-11-08T22:57:27.453Z,11.13
2022-11-08T22:59:53.894Z,11.14
2022-11-08T23:02:20.376Z,11.15
2022-11-08T23:04:46.858Z,11.14
2022-11-08T23:07:13.435Z,11.17
2022-11-08T23:09:40.045Z,11.22
2022-11-08T23:12:06.705Z,11.17
2022-11-08T23:14:37.076Z,11.17
2022-11-08T23:17:06.677Z,11.20
2022-11-08T23:19:33.184Z,11.13
2022-11-08T23:22:00.492Z,11.11
2022-11-08T23:24:27.759Z,11.09
2022-11-08T23:26:54.574Z,11.09
2022-11-08T23:29:21.032Z,11.06
2022-11-08T23:31:47.532Z,10.94
2022-11-08T23:34:13.980Z,10.98
2022-11-08T23:36:40.522Z,10.95
2022-11-08T23:39:07.058Z,10.92
2022-11-08T23:41:33.590Z,10.93
2022-11-08T23:44:00.043Z,10.92
2022-11-08T23:46:26.551Z,10.86
2022-11-08T23:48:53.016Z,10.87
2022-11-08T23:51:19.519Z,10.84
2022-11-08T23:53:46.039Z,10.79
2022-11-08T23:56:19.792Z,10.79
2022-11-08T23:58:46.359Z,10.80
